Time;durP1;ratioP1;P1;durP2;ratioP2;P2;SDS_P1;SDS_P2;PMS_P1;PMS_P2;Temp;Humidity;BMP_temperature;BMP_pressure;BME280_temperature;BME280_humidity;BME280_pressure;Samples;Min_cycle;Max_cycle;Signal;HPM_P1;HPM_P2
2024/03/18 00:00:12;;;;;;;56.53;17.98;;;;;;;;;;5031681;28;20033;-66
2024/03/18 00:02:38;;;;;;;52.58;17.50;;;;;;;;;;5031151;28;20088;-64
2024/03/18 00:05:04;;;;;;;64.82;18.17;;;;;;;;;;5032513;28;20081;-65
2024/03/18 00:07:29;;;;;;;59.88;18.70;;;;;;;;;;5032370;28;20236;-66
2024/03/18 00:09:55;;;;;;;48.10;16.30;;;;;;;;;;5031204;28;20487;-65
2024/03/18 00:12:21;;;;;;;52.80;17.23;;;;;;;;;;5031783;28;20026;-66
2024/03/18 00:14:48;;;;;;;58.10;17.55;;;;;;;;;;5032596;28;20479;-64
2024/03/18 00:17:14;;;;;;;54.40;17.77;;;;;;;;;;5030998;28;20091;-65
2024/03/18 00:19:39;;;;;;;51.95;17.08;;;;;;;;;;5031239;28;20112;-64
2024/03/18 00:22:05;;;;;;;68.63;18.90;;;;;;;;;;5032118;28;20041;-63
2024/03/18 00:24:31;;;;;;;58.50;18.40;;;;;;;;;;5030987;28;20041;-64
2024/03/18 00:26:57;;;;;;;61.88;17.40;;;;;;;;;;5014162;28;20040;-65
2024/03/18 00:29:23;;;;;;;62.10;17.30;;;;;;;;;;5030890;28;20120;-64
2024/03/18 00:31:48;;;;;;;53.60;17.30;;;;;;;;;;5030972;28;20041;-64
2024/03/18 00:34:14;;;;;;;56.90;18.13;;;;;;;;;;5030745;28;20514;-63
2024/03/18 00:36:39;;;;;;;50.92;17.77;;;;;;;;;;5030856;28;20034;-64
2024/03/18 00:39:06;;;;;;;63.83;19.70;;;;;;;;;;5031758;28;20131;-64
2024/03/18 00:41:44;;;;;;;59.33;17.17;;;;;;;;;;5030457;28;20037;-63
2024/03/18 00:44:10;;;;;;;52.35;17.45;;;;;;;;;;5029989;28;20037;-64
2024/03/18 00:46:36;;;;;;;55.17;17.35;;;;;;;;;;5031949;28;20263;-64
2024/03/18 00:49:01;;;;;;;57.08;18.77;;;;;;;;;;5031884;28;20034;-65
2024/03/18 00:51:27;;;;;;;53.10;17.05;;;;;;;;;;5030891;28;20037;-66
2024/03/18 00:53:52;;;;;;;59.25;18.45;;;;;;;;;;5031545;28;20482;-65
2024/03/18 00:56:18;;;;;;;49.92;17.65;;;;;;;;;;5030002;28;20037;-67
2024/03/18 00:58:44;;;;;;;55.08;18.90;;;;;;;;;;5031376;28;20465;-66
2024/03/18 01:01:11;;;;;;;54.78;17.58;;;;;;;;;;5030463;28;20029;-66
2024/03/18 01:03:36;;;;;;;51.03;18.10;;;;;;;;;;5031605;28;20219;-66
2024/03/18 01:06:03;;;;;;;51.92;18.50;;;;;;;;;;5030239;28;20154;-65
2024/03/18 01:08:28;;;;;;;59.72;19.17;;;;;;;;;;5029833;28;20380;-65
2024/03/18 01:10:54;;;;;;;53.75;18.25;;;;;;;;;;5031553;28;20216;-67
2024/03/18 01:13:19;;;;;;;56.25;18.67;;;;;;;;;;5028889;28;20116;-65
2024/03/18 01:15:45;;;;;;;53.47;17.90;;;;;;;;;;5031769;28;20522;-66
2024/03/18 01:18:10;;;;;;;48.58;18.13;;;;;;;;;;5029793;28;20509;-66
2024/03/18 01:20:36;;;;;;;50.92;17.23;;;;;;;;;;5031381;28;20029;-65
2024/03/18 01:23:02;;;;;;;54.50;17.95;;;;;;;;;;5031274;28;20041;-66
2024/03/18 01:25:28;;;;;;;51.15;17.20;;;;;;;;;;5031493;28;20521;-66
2024/03/18 01:27:54;;;;;;;49.17;18.85;;;;;;;;;;5029996;28;20526;-66
2024/03/18 01:30:20;;;;;;;59.72;19.13;;;;;;;;;;5029811;28;20128;-66
2024/03/18 01:32:46;;;;;;;57.25;18.52;;;;;;;;;;5029907;28;20129;-65
2024/03/18 01:35:15;;;;;;;64.65;18.38;;;;;;;;;;5031458;28;20036;-65
2024/03/18 01:37:40;;;;;;;62.67;18.85;;;;;;;;;;5029837;28;20495;-66
2024/03/18 01:40:07;;;;;;;59.10;18.48;;;;;;;;;;5013445;28;20059;-65
2024/03/18 01:42:33;;;;;;;58.08;20.00;;;;;;;;;;5013468;28;20068;-65
2024/03/18 01:44:58;;;;;;;65.63;20.13;;;;;;;;;;5031205;28;20045;-64
2024/03/18 01:47:24;;;;;;;53.42;18.73;;;;;;;;;;5031216;28;20045;-66
2024/03/18 01:49:50;;;;;;;63.30;18.95;;;;;;;;;;5029682;28;20033;-66
2024/03/18 01:52:17;;;;;;;56.58;19.63;;;;;;;;;;5029957;28;20052;-66
2024/03/18 01:54:43;;;;;;;60.88;19.08;;;;;;;;;;5030824;28;20068;-65
2024/03/18 01:57:09;;;;;;;58.78;18.80;;;;;;;;;;5029939;28;20538;-66
2024/03/18 01:59:35;;;;;;;53.42;18.80;;;;;;;;;;5030911;28;20029;-66
2024/03/18 02:02:00;;;;;;;67.45;22.35;;;;;;;;;;4997273;28;20140;-66
2024/03/18 02:04:26;;;;;;;60.20;21.48;;;;;;;;;;5031151;28;20085;-65
2024/03/18 02:06:52;;;;;;;57.85;19.77;;;;;;;;;;5029469;28;20034;-65
2024/03/18 02:09:19;;;;;;;53.22;19.10;;;;;;;;;;5030725;28;20049;-66
2024/03/18 02:11:45;;;;;;;54.50;18.90;;;;;;;;;;5029524;28;20077;-66
2024/03/18 02:14:15;;;;;;;53.67;19.05;;;;;;;;;;5031033;28;20065;-65
2024/03/18 02:16:41;;;;;;;52.92;18.33;;;;;;;;;;5029747;28;20077;-66
2024/03/18 02:19:26;;;;;;;59.67;20.73;;;;;;;;;;5029007;28;20137;-67
2024/03/18 02:21:52;;;;;;;50.47;20.25;;;;;;;;;;5029312;28;20565;-67
2024/03/18 02:24:18;;;;;;;48.63;18.30;;;;;;;;;;5030828;28;20510;-65
2024/03/18 02:26:43;;;;;;;65.18;20.15;;;;;;;;;;5030827;28;20045;-66
2024/03/18 02:29:09;;;;;;;48.58;18.65;;;;;;;;;;5030713;28;20545;-66
2024/03/18 02:31:34;;;;;;;59.00;18.77;;;;;;;;;;5029175;28;20089;-65
2024/03/18 02:34:00;;;;;;;66.53;18.77;;;;;;;;;;5030981;28;20491;-65
2024/03/18 02:36:25;;;;;;;64.18;18.05;;;;;;;;;;5033935;28;20041;-65
2024/03/18 02:38:52;;;;;;;56.70;18.48;;;;;;;;;;5016632;28;20062;-66
2024/03/18 02:41:18;;;;;;;51.90;17.63;;;;;;;;;;5032849;28;20688;-65
2024/03/18 02:43:43;;;;;;;48.78;16.13;;;;;;;;;;5039857;28;20049;-66
2024/03/18 02:46:08;;;;;;;49.58;17.77;;;;;;;;;;5034142;28;20053;-65
2024/03/18 02:48:34;;;;;;;56.50;17.55;;;;;;;;;;5034003;28;20033;-65
2024/03/18 02:51:04;;;;;;;49.78;17.88;;;;;;;;;;5032855;28;20037;-65
2024/03/18 02:53:29;;;;;;;48.50;18.90;;;;;;;;;;5032423;28;20068;-66
2024/03/18 02:55:55;;;;;;;56.58;19.65;;;;;;;;;;5032760;28;20037;-65
2024/03/18 02:58:20;;;;;;;44.88;18.42;;;;;;;;;;5032694;28;20124;-66
2024/03/18 03:00:46;;;;;;;45.40;17.70;;;;;;;;;;5032615;28;20495;-66
2024/03/18 03:03:11;;;;;;;54.55;18.92;;;;;;;;;;5033566;28;20092;-66
2024/03/18 03:05:37;;;;;;;46.58;17.90;;;;;;;;;;5033646;28;20485;-65
2024/03/18 03:08:02;;;;;;;51.45;18.60;;;;;;;;;;5033333;28;20490;-65
2024/03/18 03:10:28;;;;;;;56.00;18.00;;;;;;;;;;5034127;28;20037;-66
2024/03/18 03:12:53;;;;;;;61.45;18.48;;;;;;;;;;5032129;28;20099;-65
2024/03/18 03:15:20;;;;;;;49.88;19.50;;;;;;;;;;5034065;28;20034;-66
2024/03/18 03:17:45;;;;;;;52.22;18.15;;;;;;;;;;5033480;28;20037;-66
2024/03/18 03:20:12;;;;;;;52.88;18.20;;;;;;;;;;5033930;28;20035;-66
2024/03/18 03:22:38;;;;;;;52.05;19.50;;;;;;;;;;5012990;28;20038;-65
2024/03/18 03:25:03;;;;;;;52.53;20.85;;;;;;;;;;5012454;28;20049;-64
2024/03/18 03:27:29;;;;;;;66.47;21.13;;;;;;;;;;5015060;28;20038;-66
2024/03/18 03:29:55;;;;;;;55.58;20.45;;;;;;;;;;5032169;28;20442;-65
2024/03/18 03:32:21;;;;;;;57.20;20.63;;;;;;;;;;5033224;28;20523;-65
2024/03/18 03:34:47;;;;;;;67.45;20.23;;;;;;;;;;5031872;28;20033;-65
2024/03/18 03:37:12;;;;;;;52.95;19.08;;;;;;;;;;5032218;28;20053;-66
2024/03/18 03:39:38;;;;;;;49.05;20.92;;;;;;;;;;5031304;28;20070;-66
2024/03/18 03:42:04;;;;;;;52.47;20.98;;;;;;;;;;5032788;28;20064;-65
2024/03/18 03:44:30;;;;;;;54.63;20.15;;;;;;;;;;5032907;28;20057;-66
2024/03/18 03:46:56;;;;;;;54.17;21.25;;;;;;;;;;5030249;28;20365;-67
2024/03/18 03:49:21;;;;;;;55.60;19.75;;;;;;;;;;5060711;28;20171;-65
2024/03/18 03:51:47;;;;;;;52.45;19.83;;;;;;;;;;5032582;28;20041;-67
2024/03/18 03:54:13;;;;;;;56.53;19.73;;;;;;;;;;5064233;28;20037;-65
2024/03/18 03:56:39;;;;;;;52.90;20.00;;;;;;;;;;5031348;28;20037;-66
2024/03/18 03:59:04;;;;;;;52.05;19.25;;;;;;;;;;5032444;28;20075;-66
2024/03/18 04:01:30;;;;;;;49.45;21.00;;;;;;;;;;5032706;28;20044;-67
2024/03/18 04:03:56;;;;;;;68.18;20.35;;;;;;;;;;5032336;28;20037;-69
2024/03/18 04:06:22;;;;;;;53.00;20.85;;;;;;;;;;5032375;28;20132;-64
2024/03/18 04:08:47;;;;;;;56.60;21.83;;;;;;;;;;5030600;28;20495;-61
2024/03/18 04:11:13;;;;;;;59.13;20.10;;;;;;;;;;5030802;28;20136;-64
2024/03/18 04:13:39;;;;;;;57.90;21.85;;;;;;;;;;5031065;28;20052;-62
2024/03/18 04:16:05;;;;;;;52.25;22.13;;;;;;;;;;5032089;28;20029;-64
2024/03/18 04:18:31;;;;;;;55.92;22.70;;;;;;;;;;5031724;28;20034;-62
2024/03/18 04:20:59;;;;;;;55.63;21.60;;;;;;;;;;5030993;28;20041;-62
2024/03/18 04:23:26;;;;;;;57.00;21.70;;;;;;;;;;5029491;28;20049;-62
2024/03/18 04:25:52;;;;;;;48.88;21.27;;;;;;;;;;5030250;28;20080;-61
2024/03/18 04:28:17;;;;;;;56.60;22.02;;;;;;;;;;5029722;28;20098;-62
2024/03/18 04:30:43;;;;;;;65.28;23.13;;;;;;;;;;5030168;28;20044;-62
2024/03/18 04:33:09;;;;;;;60.92;21.58;;;;;;;;;;5030799;28;20543;-63
2024/03/18 04:35:34;;;;;;;52.80;22.95;;;;;;;;;;5032087;28;20041;-63
2024/03/18 04:38:00;;;;;;;61.33;21.42;;;;;;;;;;5031973;28;20524;-62
2024/03/18 04:40:26;;;;;;;55.08;21.73;;;;;;;;;;5030695;28;20041;-63
2024/03/18 04:42:52;;;;;;;57.72;22.08;;;;;;;;;;5031779;28;20550;-62
2024/03/18 04:45:18;;;;;;;65.95;23.33;;;;;;;;;;5032073;28;20041;-62
2024/03/18 04:47:45;;;;;;;59.13;23.52;;;;;;;;;;5030118;28;20132;-62
2024/03/18 04:50:12;;;;;;;53.13;21.05;;;;;;;;;;5030305;28;20029;-61
2024/03/18 04:52:37;;;;;;;63.13;21.55;;;;;;;;;;5031904;28;20451;-62
2024/03/18 04:55:03;;;;;;;60.17;22.95;;;;;;;;;;5031963;28;20087;-62
2024/03/18 04:57:29;;;;;;;74.82;23.65;;;;;;;;;;5013239;28;20061;-65
2024/03/18 04:59:55;;;;;;;72.18;24.83;;;;;;;;;;5030214;28;20048;-63
2024/03/18 05:02:21;;;;;;;60.40;24.40;;;;;;;;;;5031656;28;20513;-63
2024/03/18 05:04:48;;;;;;;52.40;23.63;;;;;;;;;;5031526;28;20045;-62
2024/03/18 05:07:13;;;;;;;58.92;22.77;;;;;;;;;;5031341;28;20513;-64
2024/03/18 05:09:39;;;;;;;64.65;23.67;;;;;;;;;;5029189;28;20049;-63
2024/03/18 05:12:04;;;;;;;50.72;21.45;;;;;;;;;;5029792;28;20045;-62
2024/03/18 05:14:30;;;;;;;60.90;21.48;;;;;;;;;;5030229;28;20050;-64
2024/03/18 05:16:55;;;;;;;61.88;20.92;;;;;;;;;;5031067;28;20033;-68
2024/03/18 05:19:23;;;;;;;52.78;22.15;;;;;;;;;;5031480;28;20068;-65
2024/03/18 05:21:49;;;;;;;62.08;21.63;;;;;;;;;;5030127;28;20298;-65
2024/03/18 05:24:14;;;;;;;48.85;20.60;;;;;;;;;;5013534;28;20108;-68
2024/03/18 05:26:40;;;;;;;54.38;22.05;;;;;;;;;;5013381;28;20080;-67
2024/03/18 05:29:06;;;;;;;59.55;21.77;;;;;;;;;;5029789;28;20036;-66
2024/03/18 05:31:31;;;;;;;63.63;21.90;;;;;;;;;;5031124;28;20448;-66
2024/03/18 05:34:00;;;;;;;64.18;23.27;;;;;;;;;;5030840;28;20030;-67
2024/03/18 05:36:27;;;;;;;63.17;23.00;;;;;;;;;;5029877;28;20045;-66
2024/03/18 05:38:52;;;;;;;56.78;22.90;;;;;;;;;;5029828;28;20152;-66
2024/03/18 05:41:18;;;;;;;57.10;22.52;;;;;;;;;;4997102;28;20068;-65
2024/03/18 05:43:43;;;;;;;57.50;23.05;;;;;;;;;;5030624;28;20118;-67
2024/03/18 05:46:09;;;;;;;63.67;24.15;;;;;;;;;;5029891;28;20065;-66
2024/03/18 05:48:34;;;;;;;60.30;25.05;;;;;;;;;;5029021;28;20025;-66
2024/03/18 05:51:00;;;;;;;55.30;21.77;;;;;;;;;;4996755;28;20069;-67
2024/03/18 05:53:25;;;;;;;63.08;24.42;;;;;;;;;;5029874;28;20041;-67
2024/03/18 05:55:51;;;;;;;60.88;23.77;;;;;;;;;;5029599;28;20033;-65
2024/03/18 05:58:16;;;;;;;59.42;24.08;;;;;;;;;;5029367;28;20036;-65
2024/03/18 06:00:42;;;;;;;56.78;23.25;;;;;;;;;;5031034;28;20122;-67
2024/03/18 06:03:07;;;;;;;75.75;26.92;;;;;;;;;;5030718;28;20033;-67
2024/03/18 06:05:33;;;;;;;64.75;25.27;;;;;;;;;;5030819;28;20056;-66
2024/03/18 06:07:58;;;;;;;59.78;23.17;;;;;;;;;;5029687;28;20072;-67
2024/03/18 06:10:24;;;;;;;56.20;23.45;;;;;;;;;;5031158;28;20029;-65
2024/03/18 06:12:49;;;;;;;57.60;24.42;;;;;;;;;;5032025;28;20041;-66
2024/03/18 06:15:15;;;;;;;76.88;27.48;;;;;;;;;;5033326;28;20379;-68
2024/03/18 06:17:40;;;;;;;60.65;24.98;;;;;;;;;;5032585;28;20037;-67
2024/03/18 06:20:07;;;;;;;65.32;25.33;;;;;;;;;;5034284;28;20044;-68
2024/03/18 06:22:38;;;;;;;69.40;25.85;;;;;;;;;;5034504;28;20083;-68
2024/03/18 06:27:53;;;;;;;71.57;24.50;;;;;;;;;;5034730;28;20091;-67
2024/03/18 06:30:18;;;;;;;71.22;26.25;;;;;;;;;;5045951;28;20201;-66
2024/03/18 06:32:44;;;;;;;63.63;25.42;;;;;;;;;;5014530;28;20133;-67
2024/03/18 06:35:10;;;;;;;60.00;25.38;;;;;;;;;;5028198;28;20055;-67
2024/03/18 06:37:39;;;;;;;71.00;26.10;;;;;;;;;;5032851;28;20080;-64
2024/03/18 06:40:08;;;;;;;65.85;26.15;;;;;;;;;;5032327;28;20041;-67
2024/03/18 06:42:34;;;;;;;59.30;26.17;;;;;;;;;;5032470;28;20079;-68
2024/03/18 06:45:00;;;;;;;60.17;24.42;;;;;;;;;;5032424;28;20049;-67
2024/03/18 06:47:25;;;;;;;59.08;25.85;;;;;;;;;;5066293;28;20033;-66
2024/03/18 06:49:51;;;;;;;79.80;32.63;;;;;;;;;;5033962;28;20037;-66
2024/03/18 06:52:29;;;;;;;62.42;31.00;;;;;;;;;;5033469;28;20041;-64
2024/03/18 06:55:06;;;;;;;73.43;31.25;;;;;;;;;;5013530;28;20044;-67
2024/03/18 06:57:31;;;;;;;75.82;31.95;;;;;;;;;;5031476;28;20041;-67
2024/03/18 06:59:59;;;;;;;83.03;34.75;;;;;;;;;;5031049;28;20029;-67
2024/03/18 07:02:25;;;;;;;94.35;35.65;;;;;;;;;;5033085;28;20510;-67
2024/03/18 07:04:51;;;;;;;112.65;41.95;;;;;;;;;;5033142;28;20111;-67
2024/03/18 07:07:16;;;;;;;80.30;32.28;;;;;;;;;;5032288;28;20512;-67
2024/03/18 07:09:42;;;;;;;76.72;31.58;;;;;;;;;;5065053;28;20040;-67
2024/03/18 07:12:07;;;;;;;151.50;53.50;;;;;;;;;;5033032;28;20044;-66
2024/03/18 07:14:33;;;;;;;244.88;88.30;;;;;;;;;;5033621;28;20037;-66
2024/03/18 07:16:59;;;;;;;103.97;40.85;;;;;;;;;;4995721;28;20112;-68
2024/03/18 07:19:25;;;;;;;119.10;45.78;;;;;;;;;;5016745;28;20026;-67
2024/03/18 07:21:50;;;;;;;98.30;35.97;;;;;;;;;;5032637;28;20075;-67
2024/03/18 07:24:15;;;;;;;74.68;32.92;;;;;;;;;;5033258;28;20034;-67
2024/03/18 07:26:41;;;;;;;124.35;55.05;;;;;;;;;;5032926;28;20064;-65
2024/03/18 07:29:07;;;;;;;173.88;60.08;;;;;;;;;;5033457;28;20048;-69
2024/03/18 07:31:33;;;;;;;261.77;90.55;;;;;;;;;;5032849;28;20446;-67
2024/03/18 07:33:59;;;;;;;395.55;137.68;;;;;;;;;;5065111;28;20527;-67
2024/03/18 07:36:24;;;;;;;326.60;115.93;;;;;;;;;;5031218;28;20116;-68
2024/03/18 07:38:50;;;;;;;332.63;116.22;;;;;;;;;;5032916;28;20391;-68
2024/03/18 07:41:15;;;;;;;239.68;82.95;;;;;;;;;;5032493;28;20033;-68
2024/03/18 07:43:44;;;;;;;71.65;32.22;;;;;;;;;;5064828;28;20581;-67
2024/03/18 07:46:10;;;;;;;70.25;30.48;;;;;;;;;;5064303;28;20543;-67
2024/03/18 07:48:35;;;;;;;64.82;28.92;;;;;;;;;;5032894;28;20033;-67
2024/03/18 07:51:02;;;;;;;62.75;26.95;;;;;;;;;;5031772;28;20120;-67
2024/03/18 08:51:14;;;;;;;76.90;32.80;;;;;;;;;;5023224;28;20068;-66
2024/03/18 08:53:40;;;;;;;68.45;27.40;;;;;;;;;;5030961;28;20041;-64
2024/03/18 08:56:05;;;;;;;62.05;26.30;;;;;;;;;;5013839;28;20037;-68
2024/03/18 08:58:31;;;;;;;62.53;25.77;;;;;;;;;;5031563;28;20044;-66
2024/03/18 09:00:56;;;;;;;63.80;26.48;;;;;;;;;;5030040;28;20056;-67
2024/03/18 09:03:22;;;;;;;63.65;27.23;;;;;;;;;;5029942;28;20061;-67
2024/03/18 09:05:54;;;;;;;64.07;27.50;;;;;;;;;;5031310;28;20141;-67
2024/03/18 09:08:20;;;;;;;59.60;25.45;;;;;;;;;;5030733;28;20331;-67
2024/03/18 09:10:46;;;;;;;58.17;27.15;;;;;;;;;;5029994;28;20057;-65
2024/03/18 09:13:14;;;;;;;57.13;25.42;;;;;;;;;;5031042;28;20069;-66
2024/03/18 09:15:39;;;;;;;57.97;24.92;;;;;;;;;;5031212;28;20403;-66
2024/03/18 09:18:06;;;;;;;69.85;27.13;;;;;;;;;;5031049;28;20040;-66
2024/03/18 09:20:32;;;;;;;68.43;26.98;;;;;;;;;;5033087;28;20037;-64
2024/03/18 09:22:57;;;;;;;58.72;24.95;;;;;;;;;;5032177;28;20499;-66
2024/03/18 09:25:23;;;;;;;63.00;26.02;;;;;;;;;;5031938;28;20087;-64
2024/03/18 09:27:48;;;;;;;61.13;26.13;;;;;;;;;;5031287;28;20038;-65
2024/03/18 09:30:16;;;;;;;56.38;24.33;;;;;;;;;;5030851;28;20104;-65
2024/03/18 09:32:42;;;;;;;63.13;25.48;;;;;;;;;;5032844;28;20454;-64
2024/03/18 09:35:08;;;;;;;53.35;24.70;;;;;;;;;;5065600;28;20124;-66
2024/03/18 09:37:34;;;;;;;57.28;23.92;;;;;;;;;;5030677;28;20121;-66
2024/03/18 09:39:59;;;;;;;58.45;23.33;;;;;;;;;;5030701;28;20050;-65
2024/03/18 09:42:27;;;;;;;57.70;24.88;;;;;;;;;;5030542;28;20034;-67
2024/03/18 09:44:53;;;;;;;57.45;26.25;;;;;;;;;;5033465;28;20041;-68
2024/03/18 09:47:24;;;;;;;54.95;25.05;;;;;;;;;;5036079;28;20041;-67
2024/03/18 09:49:52;;;;;;;59.75;24.33;;;;;;;;;;5033344;28;20053;-69
2024/03/18 09:52:18;;;;;;;64.80;26.50;;;;;;;;;;5015320;28;20044;-65
2024/03/18 09:54:49;;;;;;;63.45;25.85;;;;;;;;;;5023065;28;20113;-66
2024/03/18 09:57:14;;;;;;;;;;;;;;;;;;5035455;28;20628;-66
2024/03/18 09:59:40;;;;;;;62.58;23.52;;;;;;;;;;5066647;28;20000;-66
2024/03/18 10:02:11;;;;;;;64.78;26.15;;;;;;;;;;5050228;28;20041;-69
2024/03/18 10:04:37;;;;;;;64.18;24.90;;;;;;;;;;5049208;28;20041;-67
2024/03/18 10:07:03;;;;;;;61.20;25.42;;;;;;;;;;5033404;28;20564;-66
2024/03/18 10:09:29;;;;;;;59.92;25.30;;;;;;;;;;5034032;28;20067;-65
2024/03/18 10:11:55;;;;;;;67.32;25.35;;;;;;;;;;5034804;28;20041;-67
2024/03/18 10:14:21;;;;;;;66.93;25.90;;;;;;;;;;5033237;28;20486;-67
2024/03/18 10:16:46;;;;;;;65.43;26.08;;;;;;;;;;5034368;28;20033;-66
2024/03/18 10:19:14;;;;;;;56.13;25.00;;;;;;;;;;5034260;28;20475;-67
2024/03/18 10:21:39;;;;;;;69.40;26.10;;;;;;;;;;5038997;28;20047;-67
2024/03/18 10:24:06;;;;;;;63.75;25.38;;;;;;;;;;5040461;28;20033;-68
2024/03/18 10:26:31;;;;;;;63.47;24.05;;;;;;;;;;5032085;28;20049;-68
2024/03/18 10:28:57;;;;;;;64.00;24.70;;;;;;;;;;5033927;28;20588;-67
2024/03/18 10:31:23;;;;;;;61.03;23.25;;;;;;;;;;5032854;28;20044;-68
2024/03/18 10:33:48;;;;;;;57.45;24.27;;;;;;;;;;5034153;28;20415;-67
2024/03/18 10:36:22;;;;;;;55.08;23.55;;;;;;;;;;5034075;28;20061;-67
2024/03/18 10:38:53;;;;;;;57.85;23.48;;;;;;;;;;5033002;28;20037;-68
2024/03/18 10:41:20;;;;;;;63.17;24.38;;;;;;;;;;5034066;28;20029;-68
2024/03/18 10:43:51;;;;;;;56.70;23.95;;;;;;;;;;5034202;28;20026;-67
2024/03/18 10:46:17;;;;;;;64.05;23.95;;;;;;;;;;5033099;28;20465;-68
2024/03/18 10:48:43;;;;;;;53.42;24.23;;;;;;;;;;5033916;28;20504;-67
2024/03/18 10:51:11;;;;;;;66.53;25.55;;;;;;;;;;5032400;28;20245;-69
2024/03/18 10:53:37;;;;;;;58.22;23.33;;;;;;;;;;5034115;28;20037;-66
2024/03/18 10:56:04;;;;;;;65.78;23.60;;;;;;;;;;5015280;28;20506;-66
2024/03/18 10:58:30;;;;;;;64.03;25.58;;;;;;;;;;5065665;28;20033;-67
2024/03/18 11:00:56;;;;;;;55.05;21.75;;;;;;;;;;5032060;28;20052;-68
2024/03/18 11:03:22;;;;;;;58.20;22.80;;;;;;;;;;5033467;28;20037;-67
2024/03/18 11:06:00;;;;;;;63.10;24.63;;;;;;;;;;5033622;28;20175;-67
2024/03/18 11:08:26;;;;;;;56.83;23.33;;;;;;;;;;5032934;28;22613;-67
2024/03/18 11:10:55;;;;;;;55.20;22.90;;;;;;;;;;5032994;28;20130;-68
2024/03/18 11:13:31;;;;;;;61.38;22.80;;;;;;;;;;5031433;28;20029;-67
2024/03/18 11:16:00;;;;;;;52.10;22.02;;;;;;;;;;5032910;28;20091;-67
2024/03/18 11:18:27;;;;;;;57.58;22.70;;;;;;;;;;5014958;28;20387;-67
2024/03/18 11:20:53;;;;;;;60.53;24.42;;;;;;;;;;5041181;28;20132;-67
2024/03/18 11:23:20;;;;;;;49.95;20.65;;;;;;;;;;5041358;28;20065;-64
2024/03/18 11:25:52;;;;;;;56.60;21.05;;;;;;;;;;5046365;28;20124;-63
2024/03/18 11:28:18;;;;;;;49.80;20.95;;;;;;;;;;5041650;28;20577;-66
2024/03/18 11:30:47;;;;;;;58.55;23.00;;;;;;;;;;5032693;28;20084;-68
2024/03/18 11:33:13;;;;;;;51.85;20.30;;;;;;;;;;5030322;28;20025;-65
2024/03/18 11:35:41;;;;;;;51.30;19.90;;;;;;;;;;5031881;28;20064;-68
2024/03/18 11:38:16;;;;;;;51.10;19.90;;;;;;;;;;5031302;28;20040;-67
2024/03/18 11:40:42;;;;;;;42.05;18.33;;;;;;;;;;5031420;28;20064;-65
2024/03/18 11:43:08;;;;;;;47.50;19.77;;;;;;;;;;5032636;28;20133;-65
2024/03/18 11:45:34;;;;;;;58.50;19.13;;;;;;;;;;5031428;28;20135;-67
2024/03/18 11:48:01;;;;;;;48.92;18.27;;;;;;;;;;5032127;28;20025;-66
2024/03/18 11:50:30;;;;;;;47.97;19.83;;;;;;;;;;5031628;28;20061;-67
2024/03/18 11:52:56;;;;;;;47.13;17.45;;;;;;;;;;5031107;28;20064;-66
2024/03/18 11:55:22;;;;;;;46.67;16.75;;;;;;;;;;5031443;28;20112;-65
2024/03/18 11:57:47;;;;;;;39.92;16.25;;;;;;;;;;5032397;28;20075;-66
2024/03/18 12:00:13;;;;;;;43.80;17.17;;;;;;;;;;5032638;28;20029;-66
2024/03/18 12:02:39;;;;;;;42.70;16.45;;;;;;;;;;5030749;28;20571;-65
2024/03/18 12:05:04;;;;;;;47.65;18.88;;;;;;;;;;5063582;28;20041;-66
2024/03/18 12:07:30;;;;;;;41.83;17.80;;;;;;;;;;5063256;28;20037;-66
2024/03/18 12:09:56;;;;;;;43.28;16.98;;;;;;;;;;5032459;28;20033;-65
2024/03/18 12:12:21;;;;;;;42.55;18.05;;;;;;;;;;5030856;28;20434;-62
2024/03/18 12:14:47;;;;;;;46.83;17.92;;;;;;;;;;5031897;28;20033;-63
2024/03/18 12:17:12;;;;;;;36.53;15.70;;;;;;;;;;5031794;28;20048;-63
2024/03/18 12:19:48;;;;;;;42.97;16.63;;;;;;;;;;5031732;28;20034;-63
2024/03/18 12:22:13;;;;;;;44.33;17.70;;;;;;;;;;5029188;28;20049;-61
2024/03/18 12:30:18;;;;;;;49.08;19.40;;;;;;;;;;5029778;28;20125;-63
2024/03/18 12:32:48;;;;;;;52.65;19.63;;;;;;;;;;5026621;28;20533;-61
2024/03/18 12:35:15;;;;;;;45.88;18.42;;;;;;;;;;5028289;28;20033;-64
2024/03/18 12:37:48;;;;;;;50.30;19.48;;;;;;;;;;5029855;28;20132;-63
2024/03/18 12:40:17;;;;;;;48.15;18.65;;;;;;;;;;5029293;28;20056;-63
2024/03/18 12:42:46;;;;;;;51.42;18.10;;;;;;;;;;5030185;28;20060;-63
2024/03/18 12:45:12;;;;;;;53.42;18.52;;;;;;;;;;5030126;28;20037;-63
2024/03/18 12:47:38;;;;;;;52.63;18.52;;;;;;;;;;5030495;28;20439;-64
2024/03/18 12:50:05;;;;;;;49.70;19.27;;;;;;;;;;5031142;28;20263;-61
2024/03/18 12:52:37;;;;;;;51.10;19.33;;;;;;;;;;5030124;28;20060;-64
2024/03/18 12:55:04;;;;;;;42.33;16.20;;;;;;;;;;5031432;28;20554;-62
2024/03/18 12:57:33;;;;;;;38.65;16.52;;;;;;;;;;5029998;28;20503;-63
2024/03/18 12:59:59;;;;;;;50.92;17.13;;;;;;;;;;5062565;28;20036;-69
2024/03/18 13:02:25;;;;;;;47.55;16.67;;;;;;;;;;5013165;28;20033;-64
2024/03/18 13:04:51;;;;;;;49.50;16.65;;;;;;;;;;5030076;28;20132;-64
2024/03/18 13:07:16;;;;;;;48.58;17.27;;;;;;;;;;5029340;28;20507;-65
2024/03/18 13:09:42;;;;;;;52.67;18.52;;;;;;;;;;5030866;28;20064;-63
2024/03/18 13:12:07;;;;;;;50.95;16.80;;;;;;;;;;5030008;28;20039;-65
2024/03/18 13:14:33;;;;;;;49.53;17.42;;;;;;;;;;5029713;28;20045;-63
2024/03/18 13:16:59;;;;;;;45.95;16.50;;;;;;;;;;5030943;28;20041;-63
2024/03/18 13:19:24;;;;;;;43.90;15.52;;;;;;;;;;5031187;28;20091;-62
2024/03/18 13:21:50;;;;;;;42.25;15.80;;;;;;;;;;5030977;28;20523;-64
2024/03/18 13:24:16;;;;;;;49.85;15.70;;;;;;;;;;5029900;28;20060;-63
2024/03/18 13:26:41;;;;;;;35.10;15.80;;;;;;;;;;5030555;28;20491;-64
2024/03/18 13:29:09;;;;;;;43.28;15.30;;;;;;;;;;5030342;28;20519;-63
2024/03/18 13:31:34;;;;;;;45.92;14.82;;;;;;;;;;5020179;28;20041;-63
2024/03/18 13:34:01;;;;;;;41.70;16.23;;;;;;;;;;5059748;28;20487;-63
2024/03/18 13:36:26;;;;;;;40.28;13.95;;;;;;;;;;5014894;28;20037;-63
2024/03/18 13:38:52;;;;;;;43.83;14.50;;;;;;;;;;5012406;28;20431;-65
2024/03/18 13:41:21;;;;;;;39.17;14.10;;;;;;;;;;5028566;28;20037;-65
2024/03/18 13:43:47;;;;;;;45.25;14.30;;;;;;;;;;5028906;28;20033;-63
2024/03/18 13:46:13;;;;;;;38.90;14.63;;;;;;;;;;5030318;28;20045;-65
2024/03/18 13:48:38;;;;;;;33.15;13.65;;;;;;;;;;5030199;28;20034;-64
2024/03/18 13:51:04;;;;;;;37.25;13.07;;;;;;;;;;5029745;28;20081;-64
2024/03/18 13:53:30;;;;;;;38.90;13.65;;;;;;;;;;5028270;28;20052;-67
2024/03/18 13:55:57;;;;;;;37.88;13.20;;;;;;;;;;5013708;28;20525;-67
2024/03/18 13:58:23;;;;;;;38.88;14.25;;;;;;;;;;5027372;28;20034;-68
2024/03/18 14:00:48;;;;;;;43.03;13.32;;;;;;;;;;5030151;28;20033;-68
2024/03/18 14:03:14;;;;;;;44.67;13.63;;;;;;;;;;5030112;28;20030;-68
2024/03/18 14:05:41;;;;;;;34.38;12.77;;;;;;;;;;5028855;28;20049;-67
2024/03/18 14:08:07;;;;;;;48.17;14.13;;;;;;;;;;5009783;28;20025;-67
2024/03/18 14:10:32;;;;;;;45.85;13.27;;;;;;;;;;5027438;28;20029;-66
2024/03/18 14:12:58;;;;;;;33.42;12.52;;;;;;;;;;5026321;28;20609;-66
2024/03/18 14:15:26;;;;;;;36.58;13.02;;;;;;;;;;5031127;28;20044;-65
2024/03/18 14:17:55;;;;;;;45.47;14.60;;;;;;;;;;5001591;28;20033;-67
2024/03/18 14:20:21;;;;;;;34.63;13.05;;;;;;;;;;5029818;28;20040;-67
2024/03/18 14:22:48;;;;;;;36.70;13.27;;;;;;;;;;5029388;28;20065;-65
2024/03/18 14:25:20;;;;;;;40.20;14.13;;;;;;;;;;5030850;28;20081;-66
2024/03/18 14:27:54;;;;;;;39.65;12.93;;;;;;;;;;5029142;28;20045;-65
2024/03/18 14:30:20;;;;;;;45.70;13.10;;;;;;;;;;5030556;28;20164;-64
2024/03/18 14:32:45;;;;;;;35.05;12.38;;;;;;;;;;5032362;28;20132;-66
2024/03/18 14:35:14;;;;;;;32.67;12.82;;;;;;;;;;5034256;28;20045;-66
2024/03/18 14:37:40;;;;;;;32.28;12.30;;;;;;;;;;5031549;28;20042;-67
2024/03/18 14:40:09;;;;;;;42.22;12.70;;;;;;;;;;5033749;28;20037;-67
2024/03/18 14:42:34;;;;;;;32.40;12.23;;;;;;;;;;5033716;28;20041;-67
2024/03/18 14:45:00;;;;;;;38.45;14.57;;;;;;;;;;5033211;28;20041;-67
2024/03/18 14:47:25;;;;;;;42.63;14.75;;;;;;;;;;5060511;28;20098;-67
2024/03/18 14:49:51;;;;;;;37.90;12.73;;;;;;;;;;5033300;28;20053;-66
2024/03/18 14:52:16;;;;;;;35.22;12.27;;;;;;;;;;5033298;28;20026;-67
2024/03/18 14:54:42;;;;;;;36.75;11.93;;;;;;;;;;5032150;28;20034;-68
2024/03/18 14:57:09;;;;;;;32.05;10.93;;;;;;;;;;5031697;28;20461;-66
2024/03/18 14:59:34;;;;;;;34.25;11.60;;;;;;;;;;5032274;28;20034;-66
2024/03/18 15:02:00;;;;;;;35.63;12.10;;;;;;;;;;5032743;28;20041;-67
2024/03/18 15:04:26;;;;;;;36.13;13.25;;;;;;;;;;5031053;28;20128;-70
2024/03/18 15:06:51;;;;;;;31.30;11.10;;;;;;;;;;5030920;28;20600;-65
2024/03/18 15:09:19;;;;;;;47.33;13.88;;;;;;;;;;5031253;28;20040;-67
2024/03/18 15:11:45;;;;;;;35.65;12.75;;;;;;;;;;5032150;28;20047;-66
2024/03/18 15:14:10;;;;;;;36.25;12.23;;;;;;;;;;5032502;28;20519;-66
2024/03/18 15:16:36;;;;;;;40.80;12.63;;;;;;;;;;5031444;28;20487;-62